Time;durP1;ratioP1;P1;durP2;ratioP2;P2;SDS_P1;SDS_P2;PMS_P1;PMS_P2;Temp;Humidity;BMP_temperature;BMP_pressure;BME280_temperature;BME280_humidity;BME280_pressure;Samples;Min_cycle;Max_cycle;Signal;HPM_P1;HPM_P2
2022/07/16 00:03:07;;;;;;;2.15;1.23;;;23.80;98.60;;;;;;4067542;29;20201;-75
2022/07/16 00:05:10;;;;;;;2.05;1.35;;;23.80;98.40;;;;;;4067389;29;20288;-75
2022/07/16 00:07:13;;;;;;;1.65;1.20;;;23.90;98.70;;;;;;4061001;29;20228;-75
2022/07/16 00:09:15;;;;;;;1.63;1.30;;;23.90;98.50;;;;;;4051904;29;20225;-75
2022/07/16 00:11:18;;;;;;;2.40;1.35;;;23.80;98.80;;;;;;4052035;29;20730;-75
2022/07/16 00:13:20;;;;;;;1.70;1.42;;;23.90;98.70;;;;;;4051600;29;20692;-75
2022/07/16 00:15:22;;;;;;;2.38;1.60;;;23.90;98.60;;;;;;4051970;29;20272;-75
2022/07/16 00:17:26;;;;;;;2.60;1.42;;;23.80;98.70;;;;;;4067406;29;20249;-75
2022/07/16 00:19:27;;;;;;;2.65;1.40;;;23.80;98.60;;;;;;4067322;29;20264;-75
2022/07/16 00:21:30;;;;;;;2.17;1.40;;;23.80;98.70;;;;;;4067247;29;20216;-75
2022/07/16 00:23:32;;;;;;;4.57;1.80;;;23.80;98.60;;;;;;4067082;29;20225;-75
2022/07/16 00:25:35;;;;;;;2.33;1.45;;;23.90;98.60;;;;;;4060333;29;20289;-75
2022/07/16 00:27:37;;;;;;;2.53;1.50;;;23.80;98.60;;;;;;4060005;29;20216;-75
2022/07/16 00:29:39;;;;;;;2.88;1.30;;;23.80;98.70;;;;;;4066938;29;20224;-75
2022/07/16 00:31:42;;;;;;;2.72;1.30;;;23.80;98.70;;;;;;4067248;29;20665;-76
2022/07/16 00:33:46;;;;;;;2.47;1.38;;;23.80;98.70;;;;;;4067129;29;20284;-75
2022/07/16 00:35:48;;;;;;;2.20;1.27;;;23.80;98.70;;;;;;4067360;29;20244;-75
2022/07/16 00:37:50;;;;;;;2.97;1.58;;;23.80;98.70;;;;;;4067101;29;20233;-75
2022/07/16 00:39:52;;;;;;;2.22;1.70;;;23.80;98.70;;;;;;4066984;29;20272;-75
2022/07/16 00:41:55;;;;;;;1.55;1.00;;;23.80;98.70;;;;;;4066792;29;20272;-76
2022/07/16 00:44:00;;;;;;;1.58;1.40;;;23.80;98.70;;;;;;4067093;29;20224;-75
2022/07/16 00:46:02;;;;;;;3.30;1.48;;;23.80;98.70;;;;;;4066757;29;20220;-75
2022/07/16 00:48:05;;;;;;;3.00;1.50;;;23.80;98.80;;;;;;4066925;29;20217;-75
2022/07/16 00:50:10;;;;;;;1.80;1.15;;;23.80;98.80;;;;;;4066736;29;20235;-75
2022/07/16 00:52:12;;;;;;;1.75;1.30;;;23.80;98.70;;;;;;4067174;29;20272;-75
2022/07/16 00:54:15;;;;;;;2.65;1.30;;;23.80;98.80;;;;;;4066858;29;20224;-75
2022/07/16 00:56:18;;;;;;;2.10;1.27;;;23.80;99.00;;;;;;4066957;29;20288;-75
2022/07/16 00:58:20;;;;;;;2.38;1.50;;;23.80;98.80;;;;;;4066646;29;20228;-75
2022/07/16 01:00:24;;;;;;;1.90;1.60;;;23.80;98.80;;;;;;4066631;29;20320;-75
2022/07/16 01:02:26;;;;;;;2.63;1.40;;;23.80;98.90;;;;;;4066468;29;20725;-75
2022/07/16 01:04:29;;;;;;;2.85;1.52;;;23.80;98.80;;;;;;4066824;29;20319;-75
2022/07/16 01:06:33;;;;;;;2.78;1.50;;;23.80;99.00;;;;;;4066473;29;20744;-75
2022/07/16 01:08:37;;;;;;;1.60;1.33;;;23.80;98.90;;;;;;4066492;29;20224;-75
2022/07/16 01:10:41;;;;;;;2.35;1.45;;;23.70;98.90;;;;;;4050819;29;20272;-75
2022/07/16 01:12:44;;;;;;;1.73;1.23;;;23.70;98.80;;;;;;4051197;29;20221;-75
2022/07/16 01:14:46;;;;;;;3.03;1.60;;;23.70;98.80;;;;;;4065149;29;20616;-75
2022/07/16 01:16:49;;;;;;;3.15;1.58;;;23.70;98.80;;;;;;4066829;29;20221;-75
2022/07/16 01:18:51;;;;;;;3.00;1.42;;;23.80;99.00;;;;;;4066638;29;20280;-75
2022/07/16 01:20:53;;;;;;;1.45;1.25;;;23.70;98.90;;;;;;4066600;29;20248;-75
2022/07/16 01:22:57;;;;;;;1.45;1.20;;;23.70;98.80;;;;;;4067122;29;20673;-75
2022/07/16 01:25:01;;;;;;;2.03;1.50;;;23.70;98.80;;;;;;4057620;29;20615;-75
2022/07/16 01:27:03;;;;;;;2.83;1.48;;;23.70;98.90;;;;;;4054077;29;20225;-76
2022/07/16 01:29:06;;;;;;;1.77;1.30;;;23.70;98.80;;;;;;4066991;29;20248;-76
2022/07/16 01:31:08;;;;;;;2.83;1.67;;;23.70;98.90;;;;;;4066452;29;20224;-76
2022/07/16 01:33:22;;;;;;;3.28;1.52;;;23.70;99.00;;;;;;4052033;29;20225;-75
2022/07/16 01:35:24;;;;;;;3.35;1.88;;;23.70;98.90;;;;;;4059000;29;20632;-76
2022/07/16 01:37:26;;;;;;;2.88;1.45;;;23.70;99.00;;;;;;4050851;29;20742;-76
2022/07/16 01:39:31;;;;;;;3.65;1.50;;;23.70;98.90;;;;;;4066473;29;20276;-76
2022/07/16 01:41:34;;;;;;;1.63;1.42;;;23.70;98.90;;;;;;4050901;29;20673;-76
2022/07/16 01:43:37;;;;;;;2.63;1.67;;;23.70;98.90;;;;;;4050729;29;20217;-76
2022/07/16 01:45:39;;;;;;;2.15;1.63;;;23.70;98.90;;;;;;4058960;29;20280;-76
2022/07/16 01:47:42;;;;;;;5.40;1.75;;;23.70;98.90;;;;;;4066031;29;20228;-76
2022/07/16 01:49:45;;;;;;;2.55;1.50;;;23.70;98.90;;;;;;4065421;29;20280;-76
2022/07/16 01:51:48;;;;;;;2.58;1.42;;;23.70;99.30;;;;;;4066333;29;20224;-76
2022/07/16 01:53:50;;;;;;;2.42;1.42;;;23.70;99.00;;;;;;4066358;29;20299;-76
2022/07/16 01:55:52;;;;;;;1.92;1.40;;;23.70;98.90;;;;;;4066050;29;20741;-76
2022/07/16 01:57:56;;;;;;;2.63;1.55;;;23.70;99.00;;;;;;4065884;29;20217;-76
2022/07/16 01:59:58;;;;;;;2.03;1.30;;;23.70;99.00;;;;;;4065931;29;20737;-76
2022/07/16 02:02:01;;;;;;;1.80;1.42;;;23.70;98.90;;;;;;4065919;29;20264;-76
2022/07/16 02:04:03;;;;;;;1.92;1.60;;;23.60;98.90;;;;;;4066007;29;20256;-76
2022/07/16 02:06:05;;;;;;;4.40;1.50;;;23.60;98.90;;;;;;4066138;29;20714;-76
2022/07/16 02:08:09;;;;;;;2.60;1.60;;;23.70;98.90;;;;;;4065720;29;20283;-76
2022/07/16 02:10:11;;;;;;;2.40;1.48;;;23.60;98.90;;;;;;4065939;29;20597;-76
2022/07/16 02:12:14;;;;;;;1.40;1.30;;;23.60;98.90;;;;;;4066099;29;20661;-76
2022/07/16 02:14:18;;;;;;;2.63;1.58;;;23.60;98.90;;;;;;4065851;29;20283;-75
2022/07/16 02:16:20;;;;;;;1.52;1.27;;;23.60;99.00;;;;;;4065920;29;20620;-75
2022/07/16 02:18:22;;;;;;;2.08;1.38;;;23.60;99.30;;;;;;4066212;29;20212;-75
2022/07/16 02:20:25;;;;;;;2.45;1.50;;;23.60;99.00;;;;;;4065922;29;20228;-75
2022/07/16 02:22:27;;;;;;;2.08;1.40;;;23.60;99.00;;;;;;4062553;29;20726;-75
2022/07/16 02:24:30;;;;;;;2.25;1.30;;;23.60;99.10;;;;;;4053233;29;20221;-75
2022/07/16 02:26:32;;;;;;;2.35;1.40;;;23.60;99.20;;;;;;4055017;29;20289;-75
2022/07/16 02:28:34;;;;;;;3.42;1.52;;;23.60;99.00;;;;;;4065508;29;20228;-75
2022/07/16 02:30:40;;;;;;;2.38;1.40;;;23.60;99.40;;;;;;4065697;29;20224;-75
2022/07/16 02:32:43;;;;;;;2.85;1.30;;;23.60;99.10;;;;;;4065763;29;20599;-75
2022/07/16 02:34:45;;;;;;;2.15;1.30;;;23.60;99.10;;;;;;4065795;29;20212;-75
2022/07/16 02:36:47;;;;;;;2.38;1.48;;;23.60;99.20;;;;;;4068615;29;20283;-75
2022/07/16 02:38:49;;;;;;;3.75;1.67;;;23.60;99.10;;;;;;4068592;29;20248;-75
2022/07/16 02:40:52;;;;;;;3.75;1.33;;;23.60;99.20;;;;;;4068627;29;20288;-75
2022/07/16 02:42:54;;;;;;;3.35;1.80;;;23.60;99.10;;;;;;4068708;29;20254;-75
2022/07/16 02:44:56;;;;;;;1.92;1.40;;;23.60;99.20;;;;;;4068745;29;20224;-75
2022/07/16 02:47:00;;;;;;;2.10;1.25;;;23.60;99.20;;;;;;4068591;29;20288;-75
2022/07/16 02:49:02;;;;;;;2.60;1.80;;;23.60;99.30;;;;;;4068316;29;20280;-75
2022/07/16 02:51:06;;;;;;;3.58;1.70;;;23.60;99.10;;;;;;4068215;29;20257;-75
2022/07/16 02:53:08;;;;;;;2.10;1.50;;;23.60;99.10;;;;;;4068443;29;20669;-75
2022/07/16 02:55:10;;;;;;;1.45;1.30;;;23.60;99.30;;;;;;4068593;29;20678;-75
2022/07/16 02:57:13;;;;;;;2.55;1.60;;;23.60;99.30;;;;;;4068577;29;20229;-75
2022/07/16 02:59:15;;;;;;;1.60;1.40;;;23.50;99.20;;;;;;4068703;29;20224;-75
2022/07/16 03:01:17;;;;;;;2.67;1.45;;;23.60;99.40;;;;;;4068421;29;20205;-75
2022/07/16 03:03:21;;;;;;;2.63;1.50;;;23.50;99.30;;;;;;4068534;29;20559;-75
2022/07/16 03:05:23;;;;;;;2.10;1.45;;;23.60;99.40;;;;;;4068440;29;20689;-75
2022/07/16 03:07:25;;;;;;;2.13;1.55;;;23.50;99.30;;;;;;4068068;29;20228;-75
2022/07/16 03:09:28;;;;;;;2.38;1.52;;;23.50;99.30;;;;;;4068645;29;20670;-75
2022/07/16 03:11:30;;;;;;;2.05;1.30;;;23.50;99.30;;;;;;4068079;29;20670;-75
2022/07/16 03:13:32;;;;;;;2.10;1.40;;;23.60;99.40;;;;;;4068239;29;20224;-75
2022/07/16 03:15:34;;;;;;;1.50;1.35;;;23.50;99.30;;;;;;4068253;29;20233;-75
2022/07/16 03:17:38;;;;;;;2.40;1.58;;;23.50;99.70;;;;;;4068047;29;20220;-75
2022/07/16 03:19:41;;;;;;;2.63;1.73;;;23.50;99.50;;;;;;4068170;29;20299;-75
2022/07/16 03:21:44;;;;;;;1.95;1.30;;;23.50;99.50;;;;;;4065095;29;20225;-75
2022/07/16 03:23:46;;;;;;;1.70;1.35;;;23.50;99.60;;;;;;4065552;29;20224;-75
2022/07/16 03:25:48;;;;;;;3.50;1.30;;;23.50;99.60;;;;;;4061011;29;20784;-75
2022/07/16 03:27:51;;;;;;;1.55;1.45;;;23.50;99.60;;;;;;4066032;29;20220;-75
2022/07/16 03:29:53;;;;;;;2.40;1.40;;;23.50;99.50;;;;;;4068166;29;20228;-75
2022/07/16 03:31:55;;;;;;;2.75;1.50;;;23.50;99.40;;;;;;4057750;29;20273;-75
2022/07/16 03:33:57;;;;;;;3.83;1.48;;;23.50;99.50;;;;;;4052943;29;20678;-75
2022/07/16 03:36:01;;;;;;;1.58;1.35;;;23.50;99.50;;;;;;4052301;29;20674;-75
2022/07/16 03:40:24;;;;;;;3.67;1.70;;;23.50;99.60;;;;;;4052458;29;20193;-76
2022/07/16 03:42:26;;;;;;;3.35;1.80;;;23.50;99.60;;;;;;4052335;29;20225;-76
2022/07/16 03:44:28;;;;;;;2.45;1.63;;;23.50;99.90;;;;;;4052369;29;20237;-75
2022/07/16 03:46:31;;;;;;;2.40;1.23;;;23.40;99.50;;;;;;4052086;29;21775;-75
2022/07/16 03:48:33;;;;;;;1.98;1.40;;;23.50;99.60;;;;;;4052055;29;20269;-75
2022/07/16 03:50:35;;;;;;;3.08;1.63;;;23.40;99.70;;;;;;4051932;29;20686;-75
2022/07/16 03:52:39;;;;;;;3.10;1.60;;;23.40;99.60;;;;;;4052135;29;20272;-75
2022/07/16 03:54:41;;;;;;;1.52;1.30;;;23.40;99.70;;;;;;4067782;29;20228;-75
2022/07/16 03:56:44;;;;;;;2.88;1.35;;;23.40;99.60;;;;;;4060741;29;21064;-75
2022/07/16 03:58:46;;;;;;;2.47;1.67;;;23.40;99.60;;;;;;4052180;29;20563;-75
2022/07/16 04:00:48;;;;;;;3.50;1.70;;;23.50;99.60;;;;;;4051986;29;20221;-75
2022/07/16 04:02:51;;;;;;;3.17;1.63;;;23.40;99.70;;;;;;4051852;29;20281;-75
2022/07/16 04:04:53;;;;;;;2.03;1.60;;;23.40;99.60;;;;;;4052013;29;20273;-75
2022/07/16 04:06:55;;;;;;;1.70;1.40;;;23.40;99.70;;;;;;4051811;29;20245;-75
2022/07/16 04:08:59;;;;;;;2.88;1.70;;;23.40;99.70;;;;;;4052050;29;20276;-75
2022/07/16 04:11:01;;;;;;;1.85;1.30;;;23.40;99.70;;;;;;4051905;29;20221;-75
2022/07/16 04:13:04;;;;;;;2.35;1.40;;;23.40;99.70;;;;;;4051855;29;20276;-75
2022/07/16 04:15:07;;;;;;;3.40;1.40;;;23.40;99.70;;;;;;4051946;29;20257;-75
2022/07/16 04:17:09;;;;;;;2.40;1.50;;;23.40;99.70;;;;;;4051586;29;20216;-75
2022/07/16 04:19:11;;;;;;;2.78;1.73;;;23.40;99.70;;;;;;4051995;29;20277;-75
2022/07/16 04:21:14;;;;;;;3.55;1.55;;;23.40;99.60;;;;;;4053754;29;20217;-75
2022/07/16 04:23:16;;;;;;;3.40;1.75;;;23.40;99.60;;;;;;4053783;29;20285;-75
2022/07/16 04:25:20;;;;;;;2.38;1.50;;;23.40;99.60;;;;;;4066008;29;20220;-75
2022/07/16 04:27:22;;;;;;;1.95;1.40;;;23.40;99.60;;;;;;4065809;29;20283;-75
2022/07/16 04:29:25;;;;;;;2.22;1.50;;;23.40;99.50;;;;;;4066982;29;20221;-75
2022/07/16 04:31:27;;;;;;;2.17;1.60;;;23.40;99.60;;;;;;4067233;29;20250;-75
2022/07/16 04:33:30;;;;;;;3.67;1.80;;;23.40;99.50;;;;;;4067027;29;20224;-75
2022/07/16 04:35:32;;;;;;;2.42;1.60;;;23.40;99.50;;;;;;4067233;29;20268;-75
2022/07/16 04:37:35;;;;;;;2.38;1.45;;;23.40;99.50;;;;;;4067026;29;20221;-75
2022/07/16 04:39:37;;;;;;;1.88;1.30;;;23.40;99.50;;;;;;4060883;29;20217;-75
2022/07/16 04:41:41;;;;;;;2.38;1.60;;;23.40;99.50;;;;;;4051142;29;20300;-75
2022/07/16 04:43:43;;;;;;;2.05;1.50;;;23.40;99.60;;;;;;4051530;29;20280;-75
2022/07/16 04:45:45;;;;;;;1.50;1.30;;;23.40;99.50;;;;;;4051467;29;20225;-75
2022/07/16 04:47:48;;;;;;;2.05;1.50;;;23.40;99.50;;;;;;4051327;29;20297;-75
2022/07/16 04:49:50;;;;;;;3.30;1.83;;;23.40;99.50;;;;;;4057894;29;20633;-75
2022/07/16 04:51:52;;;;;;;2.28;1.40;;;23.40;99.50;;;;;;4067289;29;20224;-74
2022/07/16 04:53:54;;;;;;;1.58;1.40;;;23.40;99.50;;;;;;4066523;29;20220;-75
2022/07/16 04:55:57;;;;;;;2.28;1.50;;;23.40;99.60;;;;;;4067061;29;20224;-75
2022/07/16 04:58:00;;;;;;;2.90;1.60;;;23.40;99.60;;;;;;4066871;29;20269;-75
2022/07/16 05:00:04;;;;;;;2.35;1.35;;;23.40;99.50;;;;;;4066966;29;20224;-75
2022/07/16 05:04:41;;;;;;;1.70;1.40;;;23.40;99.40;;;;;;4049385;29;20768;-75
2022/07/16 05:06:43;;;;;;;1.73;1.50;;;23.40;99.40;;;;;;4049203;29;20664;-75
2022/07/16 05:08:46;;;;;;;2.10;1.67;;;23.40;99.40;;;;;;4049164;29;20229;-75
2022/07/16 05:10:48;;;;;;;2.80;1.75;;;23.40;99.40;;;;;;4065150;29;20285;-75
2022/07/16 05:12:50;;;;;;;2.45;1.70;;;23.40;99.30;;;;;;4066608;29;20277;-75
2022/07/16 05:14:54;;;;;;;2.05;1.60;;;23.40;99.30;;;;;;4066470;29;20224;-75
2022/07/16 05:16:56;;;;;;;2.28;1.40;;;23.40;99.30;;;;;;4066529;29;20284;-75
2022/07/16 05:18:59;;;;;;;2.30;1.50;;;23.40;99.30;;;;;;4066512;29;20216;-76
2022/07/16 05:21:01;;;;;;;2.78;1.50;;;23.40;99.60;;;;;;4054067;29;20266;-75
2022/07/16 05:23:04;;;;;;;2.40;1.40;;;23.40;99.30;;;;;;4055268;29;20261;-76
2022/07/16 05:25:07;;;;;;;3.85;1.73;;;23.40;99.20;;;;;;4050919;29;20217;-75
2022/07/16 05:27:09;;;;;;;1.40;1.30;;;23.40;99.30;;;;;;4065816;29;20236;-75
2022/07/16 05:29:11;;;;;;;2.55;1.50;;;23.40;99.20;;;;;;4066462;29;20224;-75
2022/07/16 05:31:15;;;;;;;2.67;1.67;;;23.40;99.30;;;;;;4066481;29;20232;-75
2022/07/16 05:33:18;;;;;;;2.92;1.60;;;23.40;99.30;;;;;;4066092;29;20272;-75
2022/07/16 05:35:20;;;;;;;1.75;1.50;;;23.40;99.30;;;;;;4066336;29;20217;-75
2022/07/16 05:37:23;;;;;;;1.60;1.30;;;23.40;99.30;;;;;;4065917;29;20272;-76
2022/07/16 05:39:25;;;;;;;3.17;1.67;;;23.40;99.30;;;;;;4066108;29;20275;-75
2022/07/16 05:41:27;;;;;;;2.78;1.52;;;23.40;99.20;;;;;;4066235;29;20225;-75
2022/07/16 05:43:30;;;;;;;2.88;1.60;;;23.40;99.20;;;;;;4066330;29;20287;-75
2022/07/16 05:45:32;;;;;;;2.85;1.77;;;23.40;99.30;;;;;;4066325;29;20244;-75
2022/07/16 05:47:36;;;;;;;2.53;1.45;;;23.40;99.20;;;;;;4066023;29;20701;-75
2022/07/16 05:49:38;;;;;;;2.58;1.52;;;23.40;99.20;;;;;;4065785;29;20228;-75
2022/07/16 05:51:41;;;;;;;3.08;1.60;;;23.40;99.10;;;;;;4066248;29;20220;-75
2022/07/16 05:53:43;;;;;;;1.88;1.30;;;23.40;99.20;;;;;;4066108;29;20733;-75
2022/07/16 05:55:45;;;;;;;2.47;1.33;;;23.40;99.20;;;;;;4066235;29;20677;-75
2022/07/16 05:57:47;;;;;;;2.05;1.60;;;23.40;99.20;;;;;;4066446;29;20212;-75
2022/07/16 05:59:50;;;;;;;2.40;1.50;;;23.40;99.20;;;;;;4066114;29;20623;-75
2022/07/16 06:01:52;;;;;;;2.45;1.63;;;23.40;99.10;;;;;;4066260;29;20673;-75
2022/07/16 06:03:56;;;;;;;2.38;1.60;;;23.40;99.10;;;;;;4065940;29;20765;-74
2022/07/16 06:05:58;;;;;;;2.42;1.80;;;23.40;99.10;;;;;;4066105;29;20291;-75
2022/07/16 06:08:00;;;;;;;3.05;1.88;;;23.40;99.20;;;;;;4066180;29;20243;-75
2022/07/16 06:10:03;;;;;;;2.25;1.70;;;23.40;99.30;;;;;;4066483;29;20280;-74
2022/07/16 06:12:06;;;;;;;3.17;1.45;;;23.40;99.20;;;;;;4069207;29;20275;-75
2022/07/16 06:14:08;;;;;;;2.28;1.50;;;23.40;99.20;;;;;;4068687;29;20224;-74
2022/07/16 06:16:11;;;;;;;3.05;1.67;;;23.40;99.60;;;;;;4069229;29;20216;-76
2022/07/16 06:18:13;;;;;;;3.65;1.83;;;23.40;99.30;;;;;;4067013;29;20272;-76
2022/07/16 06:20:18;;;;;;;2.30;1.70;;;23.40;99.20;;;;;;4060010;29;20271;-76
2022/07/16 06:22:20;;;;;;;2.08;1.50;;;23.40;99.30;;;;;;4055194;29;20221;-76
2022/07/16 06:24:22;;;;;;;2.72;1.55;;;23.40;99.40;;;;;;4053741;29;20221;-76
2022/07/16 06:26:25;;;;;;;2.17;1.38;;;23.40;99.40;;;;;;4063259;29;20646;-76
2022/07/16 06:28:29;;;;;;;1.80;1.30;;;23.40;99.40;;;;;;4068949;29;20751;-76
2022/07/16 06:30:32;;;;;;;2.97;1.63;;;23.40;99.50;;;;;;4053228;29;20220;-76
2022/07/16 06:32:34;;;;;;;2.28;1.63;;;23.50;99.50;;;;;;4053186;29;20225;-76
2022/07/16 06:34:36;;;;;;;1.98;1.42;;;23.40;99.70;;;;;;4053574;29;20225;-77
2022/07/16 06:36:40;;;;;;;2.47;1.35;;;23.40;99.70;;;;;;4053821;29;20217;-76
2022/07/16 06:38:42;;;;;;;1.90;1.60;;;23.40;99.60;;;;;;4053207;29;20213;-76
2022/07/16 06:40:45;;;;;;;2.60;1.33;;;23.40;99.70;;;;;;4053376;29;20225;-76
2022/07/16 06:42:48;;;;;;;2.72;1.30;;;23.40;99.70;;;;;;4053591;29;20225;-76
2022/07/16 06:44:50;;;;;;;2.60;1.52;;;23.40;99.70;;;;;;4053364;29;20233;-76
2022/07/16 06:46:52;;;;;;;2.95;1.45;;;23.40;99.90;;;;;;4053279;29;20233;-76
2022/07/16 06:48:55;;;;;;;3.75;1.67;;;23.40;99.90;;;;;;4053312;29;20241;-76
2022/07/16 06:50:57;;;;;;;2.25;1.50;;;23.40;99.90;;;;;;4052952;29;20316;-76
2022/07/16 06:53:00;;;;;;;1.77;1.58;;;23.40;99.90;;;;;;4053078;29;20340;-76
2022/07/16 06:55:03;;;;;;;1.88;1.52;;;23.40;99.90;;;;;;4053405;29;20229;-75
2022/07/16 06:57:05;;;;;;;3.22;1.80;;;23.40;99.90;;;;;;4067990;29;20650;-76
2022/07/16 06:59:08;;;;;;;2.55;1.40;;;23.40;99.90;;;;;;4068415;29;20295;-76
2022/07/16 07:01:10;;;;;;;2.60;1.67;;;23.40;99.90;;;;;;4068905;29;20216;-76
2022/07/16 07:03:13;;;;;;;1.73;1.40;;;23.40;99.90;;;;;;4068508;29;20304;-76
2022/07/16 07:05:15;;;;;;;1.38;1.25;;;23.50;99.90;;;;;;4068401;29;20220;-76
2022/07/16 07:07:17;;;;;;;2.70;1.52;;;23.50;99.90;;;;;;4068530;29;20639;-76
2022/07/16 07:09:21;;;;;;;2.22;1.50;;;23.50;99.90;;;;;;4068290;29;20636;-76
2022/07/16 07:11:23;;;;;;;3.28;1.67;;;23.50;99.90;;;;;;4068640;29;20232;-76
2022/07/16 07:13:25;;;;;;;3.05;1.45;;;23.50;99.90;;;;;;4068599;29;20228;-76
2022/07/16 07:15:28;;;;;;;1.90;1.50;;;23.50;99.90;;;;;;4068306;29;20269;-76
2022/07/16 07:17:30;;;;;;;2.35;1.67;;;23.50;99.90;;;;;;4064480;29;20221;-76
2022/07/16 07:19:33;;;;;;;3.15;1.70;;;23.50;99.90;;;;;;4056142;29;20629;-76
2022/07/16 07:21:35;;;;;;;2.30;1.45;;;23.50;99.90;;;;;;4054493;29;20325;-76
2022/07/16 07:23:38;;;;;;;2.58;1.60;;;23.50;99.90;;;;;;4052212;29;20221;-76
2022/07/16 07:25:41;;;;;;;1.77;1.63;;;23.50;99.90;;;;;;4056236;29;20213;-75
2022/07/16 07:27:43;;;;;;;2.13;1.58;;;23.50;99.90;;;;;;4068329;29;20224;-76
2022/07/16 07:29:46;;;;;;;3.30;1.50;;;23.50;99.90;;;;;;4067862;29;20228;-76
2022/07/16 07:31:48;;;;;;;2.55;1.73;;;23.50;99.90;;;;;;4067923;29;20641;-76
2022/07/16 07:33:51;;;;;;;3.17;1.55;;;23.50;99.90;;;;;;4067995;29;20266;-76
2022/07/16 07:35:54;;;;;;;2.85;1.50;;;23.50;99.90;;;;;;4068283;29;20295;-76
2022/07/16 07:37:56;;;;;;;1.58;1.35;;;23.50;99.90;;;;;;4068368;29;21016;-77
2022/07/16 07:39:58;;;;;;;1.85;1.30;;;23.60;99.90;;;;;;4068218;29;20229;-76
2022/07/16 07:42:02;;;;;;;3.03;1.60;;;23.50;99.90;;;;;;4068223;29;20288;-76
2022/07/16 07:44:05;;;;;;;2.15;1.50;;;23.50;99.90;;;;;;4069504;29;20279;-76
2022/07/16 07:46:07;;;;;;;1.90;1.45;;;23.50;99.90;;;;;;4069467;29;20217;-76
2022/07/16 07:48:09;;;;;;;2.80;1.50;;;23.60;99.90;;;;;;4069190;29;20367;-76
2022/07/16 07:50:13;;;;;;;3.67;1.42;;;23.60;99.90;;;;;;4069205;29;20753;-75
2022/07/16 07:52:15;;;;;;;2.00;1.80;;;23.50;99.90;;;;;;4069458;29;20229;-76
2022/07/16 07:54:17;;;;;;;2.22;1.60;;;23.60;99.90;;;;;;4069409;29;20217;-76
2022/07/16 07:56:20;;;;;;;1.63;1.30;;;23.60;99.90;;;;;;4069227;29;20276;-76
2022/07/16 07:58:23;;;;;;;2.88;1.48;;;23.60;99.90;;;;;;4069408;29;20619;-76
2022/07/16 08:00:26;;;;;;;1.70;1.50;;;23.60;99.90;;;;;;4068977;29;20228;-76
2022/07/16 08:02:28;;;;;;;2.97;1.67;;;23.60;99.90;;;;;;4069021;29;20273;-76
2022/07/16 08:04:33;;;;;;;3.35;1.50;;;23.60;99.90;;;;;;4069392;29;20225;-76
2022/07/16 08:06:35;;;;;;;1.65;1.40;;;23.60;99.90;;;;;;4069209;29;20228;-76
2022/07/16 08:08:37;;;;;;;1.55;1.38;;;23.60;99.90;;;;;;4069137;29;20638;-75
2022/07/16 08:10:40;;;;;;;2.03;1.40;;;23.60;99.90;;;;;;4068669;29;20225;-75
2022/07/16 08:12:42;;;;;;;2.03;1.70;;;23.60;99.90;;;;;;4069046;29;20292;-75
2022/07/16 08:14:46;;;;;;;1.83;1.20;;;23.60;99.90;;;;;;4068666;29;20224;-75
2022/07/16 08:16:48;;;;;;;1.80;1.23;;;23.70;99.90;;;;;;4068883;29;20669;-75
2022/07/16 08:18:50;;;;;;;1.65;1.52;;;23.70;99.90;;;;;;4069122;29;20217;-75
2022/07/16 08:20:53;;;;;;;1.95;1.50;;;23.60;99.90;;;;;;4068462;29;20216;-75
2022/07/16 08:22:55;;;;;;;2.08;1.45;;;23.70;99.90;;;;;;4068820;29;20555;-75
2022/07/16 08:27:25;;;;;;;1.85;1.50;;;23.70;99.90;;;;;;4040933;29;20633;-75
2022/07/16 08:29:28;;;;;;;1.70;1.52;;;23.70;99.90;;;;;;4052908;29;20229;-75
2022/07/16 08:31:32;;;;;;;1.67;1.40;;;23.70;99.90;;;;;;4052787;29;20275;-75
2022/07/16 08:33:34;;;;;;;1.67;1.30;;;23.70;99.90;;;;;;4052719;29;20737;-75
2022/07/16 08:35:36;;;;;;;2.15;1.63;;;23.70;99.90;;;;;;4052889;29;20225;-75
2022/07/16 08:37:40;;;;;;;2.33;1.55;;;23.70;99.90;;;;;;4052796;29;20228;-75
2022/07/16 08:39:44;;;;;;;1.85;1.60;;;23.70;99.90;;;;;;4052993;29;20265;-75
2022/07/16 08:41:47;;;;;;;2.63;1.90;;;23.70;99.90;;;;;;4052874;29;20247;-75
2022/07/16 08:43:50;;;;;;;2.97;1.58;;;23.80;99.90;;;;;;4052508;29;20279;-75
2022/07/16 08:45:52;;;;;;;2.10;1.75;;;23.80;99.90;;;;;;4052267;29;20245;-75
2022/07/16 08:47:56;;;;;;;2.35;1.60;;;23.80;99.90;;;;;;4052971;29;20249;-75
2022/07/16 08:49:59;;;;;;;2.10;1.60;;;23.80;99.90;;;;;;4053180;29;20285;-76
2022/07/16 08:52:02;;;;;;;3.67;1.45;;;23.80;99.90;;;;;;4054043;29;20213;-75
2022/07/16 08:54:09;;;;;;;2.03;1.52;;;23.80;99.90;;;;;;4051154;29;20726;-75
2022/07/16 08:56:12;;;;;;;1.60;1.50;;;23.80;99.90;;;;;;4050740;29;20216;-75
2022/07/16 08:58:14;;;;;;;1.77;1.58;;;23.80;99.90;;;;;;4051308;29;20221;-75
2022/07/16 09:00:18;;;;;;;2.83;1.60;;;23.80;99.90;;;;;;4051335;29;20725;-75
2022/07/16 09:02:21;;;;;;;2.65;1.70;;;23.80;99.90;;;;;;4050820;29;20218;-75
2022/07/16 09:04:24;;;;;;;1.60;1.30;;;23.80;99.90;;;;;;4051191;29;20257;-75
2022/07/16 09:06:27;;;;;;;2.70;1.60;;;23.80;99.90;;;;;;4051392;29;20328;-74
2022/07/16 09:08:29;;;;;;;2.00;1.52;;;23.90;99.90;;;;;;4051002;29;20233;-75
2022/07/16 09:10:35;;;;;;;2.05;1.50;;;23.80;99.90;;;;;;4051037;29;20252;-76
2022/07/16 09:12:41;;;;;;;2.25;1.38;;;23.80;99.90;;;;;;4051049;29;20608;-75
2022/07/16 09:14:43;;;;;;;1.95;1.50;;;23.90;99.90;;;;;;4066588;29;20300;-75
2022/07/16 09:16:49;;;;;;;1.55;1.20;;;23.90;99.90;;;;;;4066568;29;20216;-75
2022/07/16 09:19:02;;;;;;;2.13;1.45;;;23.90;99.90;;;;;;4066514;29;20224;-75
2022/07/16 09:21:06;;;;;;;2.13;1.55;;;23.90;99.90;;;;;;4066364;29;20224;-75
2022/07/16 09:23:18;;;;;;;2.92;1.70;;;23.90;99.90;;;;;;4051085;29;20288;-75
2022/07/16 09:25:20;;;;;;;2.17;1.50;;;23.90;99.90;;;;;;4063025;29;20220;-75
2022/07/16 09:27:25;;;;;;;1.85;1.40;;;23.90;99.90;;;;;;4050950;29;20280;-75
2022/07/16 09:29:28;;;;;;;1.67;1.40;;;23.90;99.90;;;;;;4050889;29;20236;-75
2022/07/16 09:31:39;;;;;;;2.20;1.67;;;23.90;99.90;;;;;;4050729;29;20635;-75
2022/07/16 09:33:41;;;;;;;1.20;1.10;;;23.90;99.90;;;;;;4050453;29;20225;-75
2022/07/16 09:35:45;;;;;;;2.53;1.40;;;23.90;99.90;;;;;;4050841;29;20725;-75
2022/07/16 09:37:51;;;;;;;1.50;1.40;;;23.90;99.90;;;;;;4050858;29;20269;-75
2022/07/16 09:39:56;;;;;;;1.95;1.40;;;23.90;99.90;;;;;;4051033;29;20671;-75
2022/07/16 09:41:58;;;;;;;1.52;1.20;;;23.90;99.90;;;;;;4050928;29;20250;-75
2022/07/16 09:44:01;;;;;;;2.42;1.50;;;23.90;99.90;;;;;;4050860;29;20229;-75
2022/07/16 09:46:04;;;;;;;2.85;1.58;;;23.90;99.90;;;;;;4050876;29;20272;-75
2022/07/16 09:48:19;;;;;;;1.60;1.42;;;24.00;99.90;;;;;;4062288;29;20216;-75
2022/07/16 09:50:22;;;;;;;2.17;1.67;;;23.90;99.90;;;;;;4065718;29;20236;-75
2022/07/16 09:52:30;;;;;;;2.08;1.10;;;23.90;99.90;;;;;;4066276;29;20729;-75
2022/07/16 09:54:37;;;;;;;1.85;1.30;;;23.90;99.90;;;;;;4066247;29;20252;-75
2022/07/16 09:56:39;;;;;;;2.15;1.42;;;23.90;99.90;;;;;;4066133;29;20232;-75
2022/07/16 09:58:46;;;;;;;2.83;1.60;;;23.90;99.90;;;;;;4066267;29;20512;-75
2022/07/16 10:00:48;;;;;;;1.55;1.40;;;23.90;99.90;;;;;;4066177;29;20288;-75
2022/07/16 10:02:52;;;;;;;1.52;1.23;;;23.90;99.90;;;;;;4065880;29;20224;-75
2022/07/16 10:04:54;;;;;;;1.65;1.20;;;23.90;99.90;;;;;;4066090;29;20737;-75
2022/07/16 10:06:58;;;;;;;1.52;1.40;;;23.90;99.90;;;;;;4066114;29;20636;-75
2022/07/16 10:09:01;;;;;;;2.10;1.50;;;24.00;99.90;;;;;;4065772;29;20228;-75
2022/07/16 10:11:06;;;;;;;1.55;1.45;;;24.00;99.90;;;;;;4065850;29;20622;-75
2022/07/16 10:13:09;;;;;;;2.50;1.55;;;24.10;99.90;;;;;;4065943;29;20268;-75
2022/07/16 10:15:12;;;;;;;1.70;1.60;;;24.00;99.90;;;;;;4050554;29;20221;-75
2022/07/16 10:17:16;;;;;;;1.50;1.08;;;24.00;99.90;;;;;;4050133;29;20320;-75
2022/07/16 10:19:19;;;;;;;1.52;1.30;;;24.00;99.90;;;;;;4050387;29;20280;-75
2022/07/16 10:21:23;;;;;;;1.75;1.30;;;24.00;99.90;;;;;;4050364;29;20797;-75
2022/07/16 10:23:30;;;;;;;1.95;1.48;;;24.10;99.90;;;;;;4050384;29;20286;-75
2022/07/16 10:25:35;;;;;;;1.35;1.20;;;24.10;99.90;;;;;;4053466;29;20273;-75
2022/07/16 10:27:39;;;;;;;2.13;1.30;;;24.10;99.90;;;;;;4065975;29;20294;-75
2022/07/16 10:29:42;;;;;;;1.27;1.17;;;24.10;99.90;;;;;;4065663;29;20240;-75
2022/07/16 10:32:27;;;;;;;2.75;1.35;;;24.10;99.90;;;;;;4065617;29;20216;-75
2022/07/16 10:34:36;;;;;;;2.95;1.50;;;24.10;99.90;;;;;;4065509;29;20268;-74
2022/07/16 10:36:50;;;;;;;1.40;1.30;;;24.10;99.90;;;;;;4061244;29;20221;-75
2022/07/16 10:39:05;;;;;;;1.48;1.30;;;24.20;99.90;;;;;;4065826;29;20740;-75
2022/07/16 10:41:10;;;;;;;1.50;1.40;;;24.20;99.90;;;;;;4065381;29;20224;-75
2022/07/16 10:43:17;;;;;;;2.50;1.27;;;24.20;99.90;;;;;;4052255;29;20221;-75
2022/07/16 10:45:19;;;;;;;2.45;1.40;;;24.10;99.90;;;;;;4058471;29;20240;-74
2022/07/16 10:47:41;;;;;;;1.30;1.10;;;24.20;99.90;;;;;;4063657;29;20209;-74
2022/07/16 10:49:45;;;;;;;1.10;1.00;;;24.20;99.90;;;;;;4065778;29;20224;-75
2022/07/16 10:51:58;;;;;;;1.75;1.27;;;24.20;99.90;;;;;;4065970;29;20240;-75